Torrington, WY

10:13 PM MDT on August 28, 2016 (GMT -0600)
Torrington Municipal | | Change Station

Elev 4206 ft 42.06 °N, 104.15 °W | Updated 20 minutes ago

Clear
Clear
69 °F
Feels Like 69 °F
N
6
Wind Variable Wind from South

Today
High -- | Low -- °F
--% Chance of Precip.
Yesterday
High -- | Low -- °F
Precip. -- in
Pressure 30.00 in
Visibility 10.0 miles
Clouds Clear
Dew Point 43 °F
Humidity 39%
Rainfall 0.00 in
Snow Depth Not available.
6:18 AM 7:35 PM
Waning Crescent, 11% visible
METAR KTOR 290353Z AUTO 17005KT 10SM CLR 21/06 A3014 RMK AO2 SLP158 T02060061
Pressure 30.00 in
Visibility 10.0 miles
Clouds Clear
Dew Point 43 °F
Humidity 39%
Rainfall 0.00 in
Snow Depth Not available.
6:18 AM 7:35 PM
Waning Crescent, 11% visible
METAR KTOR 290353Z AUTO 17005KT 10SM CLR 21/06 A3014 RMK AO2 SLP158 T02060061

10-Day Weather Forecast

Almanac

Astronomy

Aug. 28, 2016 Rise Set
Actual Time
Civil Twilight
Nautical Twilight
Astronomical Twilight
Moon
Length of Visible Light
Length of Day
Tomorrow will be .
, % of the Moon is Illuminated

Today's Extremes

State Highs State Lows

Community

WunderPhotos

Upload Photos

1,935,793 photos uploaded!

WunderBlog® & News

Nearby

Air Quality

  Air Quality AQ Index Pollutant
Not available.

Snow Depth

Station Depth Elevation

Earthquake Activity

City Distance Mag. Time & Date
Minimum magnitude displayed is 2.5.

Coastal Water Temperatures

Place Temperature

Stations

Nearby Weather Stations

Station Location Temp. Windchill Dew Point Humidity Wind Precip. Elev Updated Type
                   

Watches & Warnings

There are currently no watches in effect.